Time;durP1;ratioP1;P1;durP2;ratioP2;P2;SDS_P1;SDS_P2;PMS_P1;PMS_P2;Temp;Humidity;BMP_temperature;BMP_pressure;BME280_temperature;BME280_humidity;BME280_pressure;Samples;Min_cycle;Max_cycle;Signal;HPM_P1;HPM_P2
2023/12/04 00:02:20;;;;;;;;;;;;;;;18.57;32.71;101176.41;5017605;28;19959;-63
2023/12/04 00:04:45;;;;;;;;;;;;;;;18.56;32.73;101174.72;5017047;28;20245;-65
2023/12/04 00:07:10;;;;;;;;;;;;;;;18.54;32.62;101171.38;5017307;28;19917;-63
2023/12/04 00:09:35;;;;;;;;;;;;;;;18.53;32.44;101168.84;5016766;28;19952;-64
2023/12/04 00:12:01;;;;;;;;;;;;;;;18.51;32.69;101165.50;5016773;28;19909;-63
2023/12/04 00:14:26;;;;;;;;;;;;;;;18.49;32.64;101160.34;5016692;28;19913;-65
2023/12/04 00:16:51;;;;;;;;;;;;;;;18.48;32.46;101161.28;5017013;28;19916;-63
2023/12/04 00:19:16;;;;;;;;;;;;;;;18.46;32.72;101160.56;5017053;28;19909;-64
2023/12/04 00:21:41;;;;;;;;;;;;;;;18.45;32.60;101156.25;5017537;28;19909;-62
2023/12/04 00:24:07;;;;;;;;;;;;;;;18.44;32.69;101158.06;5017798;28;20342;-63
2023/12/04 00:26:32;;;;;;;;;;;;;;;18.43;32.63;101150.25;5017265;28;19948;-63
2023/12/04 00:28:57;;;;;;;;;;;;;;;18.41;32.54;101142.47;5016794;28;19909;-63
2023/12/04 00:31:22;;;;;;;;;;;;;;;18.40;32.67;101134.66;5016946;28;19913;-63
2023/12/04 00:33:48;;;;;;;;;;;;;;;18.39;32.55;101144.38;5016963;28;20293;-62
2023/12/04 00:36:13;;;;;;;;;;;;;;;18.38;32.65;101141.88;5016456;28;19909;-63
2023/12/04 00:38:38;;;;;;;;;;;;;;;18.37;32.61;101137.53;5017084;28;19967;-63
2023/12/04 00:41:03;;;;;;;;;;;;;;;18.35;32.68;101136.81;5016943;28;19913;-63
2023/12/04 00:43:29;;;;;;;;;;;;;;;18.33;32.44;101131.66;5017311;28;19918;-62
2023/12/04 00:45:54;;;;;;;;;;;;;;;18.34;32.64;101136.00;5016677;28;19913;-62
2023/12/04 00:48:19;;;;;;;;;;;;;;;18.33;32.59;101130.84;5017012;28;19917;-62
2023/12/04 00:50:44;;;;;;;;;;;;;;;18.33;32.56;101130.84;5017145;28;20281;-62
2023/12/04 00:53:09;;;;;;;;;;;;;;;18.32;32.52;101127.34;5016592;28;20001;-63
2023/12/04 00:55:35;;;;;;;;;;;;;;;18.32;32.58;101124.69;5015880;28;19916;-63
2023/12/04 00:58:00;;;;;;;;;;;;;;;18.31;32.47;101123.03;5016349;28;19940;-63
2023/12/04 01:00:25;;;;;;;;;;;;;;;18.30;32.32;101121.34;5016310;28;19995;-62
2023/12/04 01:02:51;;;;;;;;;;;;;;;18.29;32.59;101109.97;5016497;28;19916;-62
2023/12/04 01:05:16;;;;;;;;;;;;;;;18.29;32.39;101107.31;5016565;28;19955;-62
2023/12/04 01:07:41;;;;;;;;;;;;;;;18.28;32.45;101105.63;5016381;28;20003;-64
2023/12/04 01:10:07;;;;;;;;;;;;;;;18.27;32.45;101103.94;5015746;28;19999;-62
2023/12/04 01:12:32;;;;;;;;;;;;;;;18.26;32.27;101104.91;5014785;28;19909;-63
2023/12/04 01:14:57;;;;;;;;;;;;;;;18.26;32.48;101106.69;5016081;28;19917;-62
2023/12/04 01:17:22;;;;;;;;;;;;;;;18.25;32.54;101107.69;5015139;28;20011;-63
2023/12/04 01:19:48;;;;;;;;;;;;;;;18.23;32.21;101105.16;5016064;28;19917;-62
2023/12/04 01:22:13;;;;;;;;;;;;;;;18.23;32.35;101104.28;5019156;28;19916;-63
2023/12/04 01:24:38;;;;;;;;;;;;;;;18.22;32.29;101094.72;5020878;28;19913;-62
2023/12/04 01:27:03;;;;;;;;;;;;;;;18.20;32.18;101092.19;5020623;28;19916;-62
2023/12/04 01:29:29;;;;;;;;;;;;;;;18.20;32.31;101086.06;5020279;28;20313;-61
2023/12/04 01:31:54;;;;;;;;;;;;;;;18.20;32.30;101086.06;5019556;28;19915;-64
2023/12/04 01:34:19;;;;;;;;;;;;;;;18.19;32.48;101081.78;5020196;28;19909;-62
2023/12/04 01:36:45;;;;;;;;;;;;;;;18.18;32.43;101077.44;5018553;28;19913;-63
2023/12/04 01:39:10;;;;;;;;;;;;;;;18.17;32.45;101083.69;5019642;28;19932;-61
2023/12/04 01:41:35;;;;;;;;;;;;;;;18.17;32.30;101078.41;5019721;28;19913;-62
2023/12/04 01:44:00;;;;;;;;;;;;;;;18.16;32.38;101084.66;5019859;28;19913;-63
2023/12/04 01:46:25;;;;;;;;;;;;;;;18.15;32.37;101075.03;5019101;28;19951;-65
2023/12/04 01:48:51;;;;;;;;;;;;;;;18.13;32.13;101073.38;5019706;28;19932;-64
2023/12/04 01:51:17;;;;;;;;;;;;;;;18.13;32.47;101067.25;5019444;28;20290;-64
2023/12/04 01:53:42;;;;;;;;;;;;;;;18.12;32.26;101071.69;5019958;28;19953;-65
2023/12/04 01:56:08;;;;;;;;;;;;;;;18.11;32.17;101066.53;5020153;28;19928;-66
2023/12/04 01:58:34;;;;;;;;;;;;;;;18.10;32.22;101064.84;5019988;28;21143;-63
2023/12/04 02:00:59;;;;;;;;;;;;;;;18.09;32.35;101055.28;5019657;28;20384;-65
2023/12/04 02:03:25;;;;;;;;;;;;;;;18.08;32.10;101045.66;5019292;28;19917;-62
2023/12/04 02:05:51;;;;;;;;;;;;;;;18.07;32.25;101047.47;5019586;28;19924;-64
2023/12/04 02:08:16;;;;;;;;;;;;;;;18.06;32.36;101044.97;5019497;28;19917;-62
2023/12/04 02:10:42;;;;;;;;;;;;;;;18.06;32.30;101039.69;5018928;28;19964;-62
2023/12/04 02:13:08;;;;;;;;;;;;;;;18.05;32.31;101040.63;5019227;28;19913;-62
2023/12/04 02:15:33;;;;;;;;;;;;;;;18.03;32.22;101035.47;5018615;28;19909;-62
2023/12/04 02:17:58;;;;;;;;;;;;;;;18.04;32.38;101036.31;5018901;28;19920;-61
2023/12/04 02:20:33;;;;;;;;;;;;;;;18.02;32.18;101030.31;5018859;28;19955;-62
2023/12/04 02:22:58;;;;;;;;;;;;;;;18.02;32.16;101035.59;5019354;28;19920;-63
2023/12/04 02:25:24;;;;;;;;;;;;;;;18.00;32.26;101030.44;5019583;28;19910;-62
2023/12/04 02:27:50;;;;;;;;;;;;;;;17.99;32.30;101027.91;5017841;28;20032;-62
2023/12/04 02:30:17;;;;;;;;;;;;;;;17.98;32.10;101024.44;5017752;28;19913;-62
2023/12/04 02:32:45;;;;;;;;;;;;;;;17.99;32.18;101030.56;5018936;28;19966;-62
2023/12/04 02:35:11;;;;;;;;;;;;;;;17.97;32.30;101016.66;5019149;28;19916;-62
2023/12/04 02:37:36;;;;;;;;;;;;;;;17.97;32.33;101017.50;5019044;28;20262;-62
2023/12/04 02:40:02;;;;;;;;;;;;;;;17.96;32.26;101015.81;5018191;28;20362;-63
2023/12/04 02:42:27;;;;;;;;;;;;;;;17.94;32.42;101015.94;5018515;28;20289;-62
2023/12/04 02:44:52;;;;;;;;;;;;;;;17.93;32.05;101006.34;5018313;28;19909;-63
2023/12/04 02:47:18;;;;;;;;;;;;;;;17.92;32.42;101003.84;5019145;28;19925;-63
2023/12/04 02:49:43;;;;;;;;;;;;;;;17.93;32.28;101003.72;5018735;28;20460;-62
2023/12/04 02:52:08;;;;;;;;;;;;;;;17.92;32.07;100991.47;5018675;28;19921;-62
2023/12/04 02:54:33;;;;;;;;;;;;;;;17.92;32.14;100990.66;5018302;28;19917;-63
2023/12/04 02:56:59;;;;;;;;;;;;;;;17.90;32.06;100985.50;5018577;28;19999;-62
2023/12/04 02:59:24;;;;;;;;;;;;;;;17.90;32.17;100985.50;5018395;28;20428;-62
2023/12/04 03:01:49;;;;;;;;;;;;;;;17.90;32.01;100987.31;5018526;28;19923;-62
2023/12/04 03:04:14;;;;;;;;;;;;;;;17.89;32.30;100978.53;5018347;28;19913;-63
2023/12/04 03:06:40;;;;;;;;;;;;;;;17.89;32.16;100977.69;5018353;28;19964;-62
2023/12/04 03:09:05;;;;;;;;;;;;;;;17.89;32.23;100980.34;5018449;28;19908;-63
2023/12/04 03:11:30;;;;;;;;;;;;;;;17.88;32.27;100966.31;5017834;28;19979;-62
2023/12/04 03:13:55;;;;;;;;;;;;;;;17.88;32.03;100970.75;5016660;28;19918;-64
2023/12/04 03:16:20;;;;;;;;;;;;;;;17.88;31.94;100963.69;5018035;28;20011;-62
2023/12/04 03:18:46;;;;;;;;;;;;;;;17.86;32.21;100960.28;5017645;28;19923;-64
2023/12/04 03:21:11;;;;;;;;;;;;;;;17.86;32.03;100951.53;5016495;28;20070;-64
2023/12/04 03:23:36;;;;;;;;;;;;;;;17.84;31.95;100949.03;5018171;28;20346;-64
2023/12/04 03:26:02;;;;;;;;;;;;;;;17.85;31.83;100940.16;5018551;28;19999;-64
2023/12/04 03:28:27;;;;;;;;;;;;;;;17.83;31.85;100942.09;5018165;28;19917;-64
2023/12/04 03:30:52;;;;;;;;;;;;;;;17.83;32.18;100935.97;5018511;28;19963;-65
2023/12/04 03:33:17;;;;;;;;;;;;;;;17.82;31.89;100931.66;5018085;28;19948;-64
2023/12/04 03:35:43;;;;;;;;;;;;;;;17.83;31.89;100930.69;5017941;28;20003;-62
2023/12/04 03:38:08;;;;;;;;;;;;;;;17.81;32.00;100925.53;5017449;28;19925;-63
2023/12/04 03:40:33;;;;;;;;;;;;;;;17.82;32.14;100927.22;5017432;28;20389;-63
2023/12/04 03:42:59;;;;;;;;;;;;;;;17.81;31.97;100915.00;5017697;28;19996;-62
2023/12/04 03:45:24;;;;;;;;;;;;;;;17.81;32.11;100908.88;5016860;28;19923;-61
2023/12/04 03:47:49;;;;;;;;;;;;;;;17.80;31.86;100913.34;5017389;28;19960;-63
2023/12/04 03:50:15;;;;;;;;;;;;;;;17.79;31.96;100909.00;5017560;28;19918;-62
2023/12/04 03:52:41;;;;;;;;;;;;;;;17.79;32.14;100900.28;5017917;28;19917;-63
2023/12/04 03:55:06;;;;;;;;;;;;;;;17.77;32.17;100890.69;5017696;28;20036;-63
2023/12/04 03:57:32;;;;;;;;;;;;;;;17.76;32.09;100888.16;5016996;28;19987;-63
2023/12/04 03:59:57;;;;;;;;;;;;;;;17.77;32.17;100893.31;5017559;28;20426;-63
2023/12/04 04:02:22;;;;;;;;;;;;;;;17.76;31.94;100889.00;5017617;28;19956;-63
2023/12/04 04:04:47;;;;;;;;;;;;;;;17.76;32.13;100888.16;5017796;28;20300;-63
2023/12/04 04:07:15;;;;;;;;;;;;;;;17.76;32.19;100891.63;5016892;28;20405;-63
2023/12/04 04:09:40;;;;;;;;;;;;;;;17.74;31.97;100888.28;5016931;28;20327;-65
2023/12/04 04:12:06;;;;;;;;;;;;;;;17.75;32.09;100883.84;5017396;28;19909;-64
2023/12/04 04:14:31;;;;;;;;;;;;;;;17.73;31.87;100873.41;5017496;28;19917;-66
2023/12/04 04:16:56;;;;;;;;;;;;;;;17.74;32.04;100869.00;5017173;28;19917;-63
2023/12/04 04:19:21;;;;;;;;;;;;;;;17.72;31.89;100874.41;5017081;28;19918;-64
2023/12/04 04:21:46;;;;;;;;;;;;;;;17.72;32.20;100869.13;5017098;28;19979;-64
2023/12/04 04:24:12;;;;;;;;;;;;;;;17.71;31.88;100871.88;5017040;28;19923;-63
2023/12/04 04:26:37;;;;;;;;;;;;;;;17.70;32.11;100871.03;5016782;28;19917;-64
2023/12/04 04:29:02;;;;;;;;;;;;;;;17.71;32.01;100858.69;5016351;28;19917;-64
2023/12/04 04:31:27;;;;;;;;;;;;;;;17.70;31.97;100862.28;5032273;28;20418;-64
2023/12/04 04:33:52;;;;;;;;;;;;;;;17.70;32.07;100855.22;5017448;28;19927;-64
2023/12/04 04:36:18;;;;;;;;;;;;;;;17.70;31.85;100849.09;5016933;28;19925;-64
2023/12/04 04:38:43;;;;;;;;;;;;;;;17.68;31.98;100845.75;5017245;28;19917;-63
2023/12/04 04:41:12;;;;;;;;;;;;;;;17.68;32.13;100840.50;5016485;28;19932;-63
2023/12/04 04:43:38;;;;;;;;;;;;;;;17.67;32.19;100844.06;5017484;28;19914;-63
2023/12/04 04:46:03;;;;;;;;;;;;;;;17.66;32.20;100843.25;5017083;28;19924;-64
2023/12/04 04:48:28;;;;;;;;;;;;;;;17.66;32.19;100843.25;5016637;28;19944;-64
2023/12/04 04:50:53;;;;;;;;;;;;;;;17.66;32.07;100845.06;5017083;28;20002;-64
2023/12/04 04:53:19;;;;;;;;;;;;;;;17.65;32.06;100841.56;5016970;28;19939;-63
2023/12/04 04:55:44;;;;;;;;;;;;;;;17.64;31.78;100837.28;5018860;28;19918;-65
2023/12/04 04:58:09;;;;;;;;;;;;;;;17.65;31.90;100840.72;5021086;28;20044;-64
2023/12/04 05:00:34;;;;;;;;;;;;;;;17.64;32.03;100842.53;5020698;28;19924;-64
2023/12/04 05:02:59;;;;;;;;;;;;;;;17.64;32.04;100842.53;5021013;28;19913;-65
2023/12/04 05:05:25;;;;;;;;;;;;;;;17.64;32.12;100839.03;5020557;28;19917;-63
2023/12/04 05:07:50;;;;;;;;;;;;;;;17.63;32.10;100837.38;5019529;28;20322;-65
2023/12/04 05:10:15;;;;;;;;;;;;;;;17.63;31.81;100838.22;5020844;28;19924;-63
2023/12/04 05:12:40;;;;;;;;;;;;;;;17.61;32.14;100834.88;5020651;28;19915;-66
2023/12/04 05:15:06;;;;;;;;;;;;;;;17.62;31.81;100844.44;5020549;28;19917;-63
2023/12/04 05:17:31;;;;;;;;;;;;;;;17.62;31.92;100833.06;5020666;28;19909;-64
2023/12/04 05:19:56;;;;;;;;;;;;;;;17.62;32.15;100833.06;5020358;28;19917;-63
2023/12/04 05:22:21;;;;;;;;;;;;;;;17.61;32.20;100821.69;5020341;28;19912;-65
2023/12/04 05:24:47;;;;;;;;;;;;;;;17.61;31.89;100819.06;5020603;28;19917;-63
2023/12/04 05:27:12;;;;;;;;;;;;;;;17.61;31.87;100820.84;5019238;28;19964;-64
2023/12/04 05:29:37;;;;;;;;;;;;;;;17.61;32.01;100813.78;5018970;28;20370;-64
2023/12/04 05:32:03;;;;;;;;;;;;;;;17.64;32.26;100802.16;5019761;28;19909;-63
2023/12/04 05:34:28;;;;;;;;;;;;;;;17.64;32.25;100805.66;5020702;28;20085;-63
2023/12/04 05:36:53;;;;;;;;;;;;;;;17.67;32.68;100796.63;5020265;28;19917;-62
2023/12/04 05:39:18;;;;;;;;;;;;;;;17.71;32.73;100800.72;5019474;28;19956;-65
2023/12/04 05:41:44;;;;;;;;;;;;;;;17.75;32.84;100799.50;5020284;28;20367;-63
2023/12/04 05:44:09;;;;;;;;;;;;;;;17.79;32.72;100800.09;5020194;28;19924;-65
2023/12/04 05:46:34;;;;;;;;;;;;;;;17.84;32.77;100804.03;5019827;28;21066;-63
2023/12/04 05:48:59;;;;;;;;;;;;;;;17.89;32.48;100803.69;5020111;28;20346;-63
2023/12/04 05:51:24;;;;;;;;;;;;;;;17.94;32.67;100799.72;5019793;28;19931;-64
2023/12/04 05:53:50;;;;;;;;;;;;;;;17.99;32.70;100791.44;5019757;28;19971;-63
2023/12/04 05:56:15;;;;;;;;;;;;;;;18.03;32.28;100779.66;5019102;28;19932;-66
2023/12/04 05:58:40;;;;;;;;;;;;;;;18.07;32.26;100783.75;5019625;28;19968;-63
2023/12/04 06:01:06;;;;;;;;;;;;;;;18.11;32.65;100781.69;5019841;28;20042;-63
2023/12/04 06:03:31;;;;;;;;;;;;;;;18.14;32.39;100778.81;5019810;28;19924;-64
2023/12/04 06:05:56;;;;;;;;;;;;;;;18.16;32.38;100776.88;5019003;28;19917;-64
2023/12/04 06:08:21;;;;;;;;;;;;;;;18.20;32.54;100774.81;5018918;28;19928;-65
2023/12/04 06:10:47;;;;;;;;;;;;;;;18.22;32.45;100767.63;5019562;28;19968;-63
2023/12/04 06:13:12;;;;;;;;;;;;;;;18.23;32.39;100771.91;5019619;28;19940;-64
2023/12/04 06:15:37;;;;;;;;;;;;;;;18.25;32.36;100754.19;5019478;28;21617;-64
2023/12/04 06:18:02;;;;;;;;;;;;;;;18.26;32.48;100751.41;5019420;28;19917;-64
2023/12/04 06:20:27;;;;;;;;;;;;;;;18.26;32.33;100738.22;5018915;28;20354;-64
2023/12/04 06:22:53;;;;;;;;;;;;;;;18.29;32.24;100740.59;5019018;28;19963;-64
2023/12/04 06:25:18;;;;;;;;;;;;;;;18.30;32.33;100738.78;5019119;28;19920;-64
2023/12/04 06:27:43;;;;;;;;;;;;;;;18.30;32.41;100739.63;5018675;28;19924;-66
2023/12/04 06:30:09;;;;;;;;;;;;;;;18.31;32.13;100728.13;5018276;28;19925;-64
2023/12/04 06:32:34;;;;;;;;;;;;;;;18.32;32.30;100721.03;5017281;28;19979;-64
2023/12/04 06:35:00;;;;;;;;;;;;;;;18.33;32.52;100711.34;5019196;28;19924;-64
2023/12/04 06:37:25;;;;;;;;;;;;;;;18.34;32.51;100705.06;5019124;28;19921;-64
2023/12/04 06:39:52;;;;;;;;;;;;;;;18.33;32.15;100713.97;5018543;28;19921;-65
2023/12/04 06:42:17;;;;;;;;;;;;;;;18.34;32.08;100705.94;5018695;28;19917;-66
2023/12/04 06:44:43;;;;;;;;;;;;;;;18.36;32.37;100705.78;5018471;28;19916;-68
2023/12/04 06:47:08;;;;;;;;;;;;;;;18.37;32.33;100703.00;5018136;28;19909;-69
2023/12/04 06:49:33;;;;;;;;;;;;;;;18.39;32.50;100697.59;5018452;28;19915;-66
2023/12/04 06:51:59;;;;;;;;;;;;;;;18.40;32.53;100697.47;5018438;28;20317;-64
2023/12/04 06:54:24;;;;;;;;;;;;;;;18.41;32.60;100714.97;5018935;28;19955;-65
2023/12/04 06:56:50;;;;;;;;;;;;;;;18.41;32.49;100722.91;5018813;28;19949;-68
2023/12/04 06:59:15;;;;;;;;;;;;;;;18.42;32.53;100713.16;5018811;28;19909;-66
2023/12/04 07:01:40;;;;;;;;;;;;;;;18.42;32.48;100708.75;5018309;28;20000;-63
2023/12/04 07:04:09;;;;;;;;;;;;;;;18.42;32.48;100702.63;5017170;28;19960;-66
2023/12/04 07:06:37;;;;;;;;;;;;;;;18.42;32.43;100692.06;5018378;28;19986;-63
2023/12/04 07:09:03;;;;;;;;;;;;;;;18.42;32.41;100686.78;5018215;28;19959;-65
2023/12/04 07:11:28;;;;;;;;;;;;;;;18.44;32.48;100695.44;5018389;28;20134;-66
2023/12/04 07:13:53;;;;;;;;;;;;;;;18.46;32.72;100696.13;5018344;28;19963;-64
2023/12/04 07:16:19;;;;;;;;;;;;;;;18.48;32.45;100691.53;5017792;28;19960;-65
2023/12/04 07:18:44;;;;;;;;;;;;;;;18.51;32.44;100687.81;5017248;28;19996;-66
2023/12/04 07:21:09;;;;;;;;;;;;;;;18.52;32.50;100695.59;5017858;28;20444;-64
2023/12/04 07:23:35;;;;;;;;;;;;;;;18.54;32.31;100698.13;5018216;28;20247;-64
2023/12/04 07:26:00;;;;;;;;;;;;;;;18.53;32.67;100697.25;5018376;28;19962;-64
2023/12/04 07:28:25;;;;;;;;;;;;;;;18.56;32.84;100693.53;5018593;28;20330;-61
2023/12/04 07:30:50;;;;;;;;;;;;;;;18.56;33.10;100694.34;5018165;28;19918;-64
2023/12/04 07:33:16;;;;;;;;;;;;;;;18.57;32.93;100688.13;5018539;28;19917;-64
2023/12/04 07:35:41;;;;;;;;;;;;;;;18.58;33.11;100691.59;5017727;28;20381;-65
2023/12/04 07:38:06;;;;;;;;;;;;;;;18.59;33.25;100701.19;5018362;28;19917;-65
2023/12/04 07:40:32;;;;;;;;;;;;;;;18.59;33.16;100702.00;5016608;28;19921;-66
2023/12/04 07:42:57;;;;;;;;;;;;;;;18.61;33.15;100693.97;5018037;28;19917;-65
2023/12/04 07:45:23;;;;;;;;;;;;;;;18.62;33.18;100687.72;5018074;28;19921;-64
2023/12/04 07:47:50;;;;;;;;;;;;;;;18.64;33.21;100691.06;5017994;28;20012;-63
2023/12/04 07:50:15;;;;;;;;;;;;;;;18.65;33.23;100685.66;5018106;28;19909;-64
2023/12/04 07:52:40;;;;;;;;;;;;;;;18.67;33.24;100689.03;5017393;28;19909;-64
2023/12/04 07:55:06;;;;;;;;;;;;;;;18.66;33.44;100687.34;5017676;28;19910;-63
2023/12/04 07:57:31;;;;;;;;;;;;;;;18.68;33.26;100685.41;5017866;28;19952;-64
2023/12/04 07:59:56;;;;;;;;;;;;;;;18.69;33.65;100680.94;5018135;28;20341;-64
2023/12/04 08:02:21;;;;;;;;;;;;;;;18.72;33.75;100685.13;5017154;28;19917;-64
2023/12/04 08:04:47;;;;;;;;;;;;;;;18.72;33.56;100669.28;5017596;28;20372;-64
2023/12/04 08:07:12;;;;;;;;;;;;;;;18.72;33.51;100671.94;5017287;28;19963;-64
2023/12/04 08:09:37;;;;;;;;;;;;;;;18.72;33.65;100666.66;5017541;28;19937;-64
2023/12/04 08:12:02;;;;;;;;;;;;;;;18.72;33.54;100670.13;5017447;28;20314;-65
2023/12/04 08:14:28;;;;;;;;;;;;;;;18.73;33.37;100663.88;5017329;28;19955;-64
2023/12/04 08:16:53;;;;;;;;;;;;;;;18.74;33.44;100667.34;5017211;28;19928;-65
2023/12/04 08:19:18;;;;;;;;;;;;;;;18.76;33.39;100662.78;5014326;28;19923;-65
2023/12/04 08:21:44;;;;;;;;;;;;;;;18.75;33.30;100661.13;5016947;28;19916;-66
2023/12/04 08:24:09;;;;;;;;;;;;;;;18.73;33.09;100663.88;5016732;28;20310;-66
2023/12/04 08:26:34;;;;;;;;;;;;;;;18.72;32.88;100661.38;5016817;28;19999;-65
2023/12/04 08:28:59;;;;;;;;;;;;;;;18.70;32.96;100656.22;5016339;28;19909;-66
2023/12/04 08:31:24;;;;;;;;;;;;;;;18.69;32.83;100651.91;5015590;28;19963;-66
2023/12/04 08:33:50;;;;;;;;;;;;;;;18.67;33.22;100646.78;5017071;28;19909;-65
2023/12/04 08:36:15;;;;;;;;;;;;;;;18.66;32.77;100652.19;5016697;28;19917;-66
2023/12/04 08:38:40;;;;;;;;;;;;;;;18.66;32.97;100642.47;5031406;28;19917;-65
2023/12/04 08:41:07;;;;;;;;;;;;;;;18.66;32.66;100639.00;5015504;28;20301;-65
2023/12/04 08:43:32;;;;;;;;;;;;;;;18.66;32.90;100634.56;5014864;28;20012;-65
2023/12/04 08:45:58;;;;;;;;;;;;;;;18.68;33.04;100626.50;5010314;28;19921;-64
2023/12/04 08:48:23;;;;;;;;;;;;;;;18.70;32.95;100615.81;5010452;28;19933;-67
2023/12/04 08:50:49;;;;;;;;;;;;;;;18.71;33.03;100610.41;5009538;28;19932;-67
2023/12/04 08:53:14;;;;;;;;;;;;;;;18.72;32.81;100613.84;5011535;28;20285;-65
2023/12/04 08:55:39;;;;;;;;;;;;;;;18.73;32.87;100604.97;5010981;28;20710;-66
2023/12/04 08:58:04;;;;;;;;;;;;;;;18.74;32.89;100607.50;5011380;28;19925;-65
2023/12/04 09:00:30;;;;;;;;;;;;;;;18.73;32.83;100603.16;5009863;28;20120;-65
2023/12/04 09:02:55;;;;;;;;;;;;;;;18.75;32.80;100617.06;5011542;28;19930;-66
2023/12/04 09:05:20;;;;;;;;;;;;;;;18.74;32.74;100607.50;5010532;28;19921;-65
2023/12/04 09:07:46;;;;;;;;;;;;;;;18.78;32.94;100610.69;5010545;28;20285;-64
2023/12/04 09:10:11;;;;;;;;;;;;;;;18.78;32.98;100606.22;5009969;28;19932;-64
2023/12/04 09:12:37;;;;;;;;;;;;;;;18.79;33.08;100600.00;5009199;28;19925;-65
2023/12/04 09:15:04;;;;;;;;;;;;;;;18.78;32.73;100600.94;5008692;28;20373;-64
2023/12/04 09:17:29;;;;;;;;;;;;;;;18.80;32.62;100598.19;5009918;28;20329;-65
2023/12/04 09:19:54;;;;;;;;;;;;;;;18.80;32.67;100601.69;5009899;28;19933;-64
2023/12/04 09:22:19;;;;;;;;;;;;;;;18.81;32.76;100595.41;5010381;28;20034;-66
2023/12/04 09:24:45;;;;;;;;;;;;;;;18.82;32.55;100594.44;5010500;28;20277;-62
2023/12/04 09:27:10;;;;;;;;;;;;;;;18.81;32.51;100590.13;5009829;28;19936;-65
2023/12/04 09:29:35;;;;;;;;;;;;;;;18.81;32.59;100582.19;5009857;28;19917;-65
2023/12/04 09:32:01;;;;;;;;;;;;;;;18.83;32.36;100592.63;5008763;28;20293;-65
2023/12/04 09:34:26;;;;;;;;;;;;;;;18.83;32.55;100596.13;5009463;28;20350;-64
2023/12/04 09:36:51;;;;;;;;;;;;;;;18.84;32.54;100594.34;5010846;28;20280;-64
2023/12/04 09:39:16;;;;;;;;;;;;;;;18.84;32.56;100589.06;5010942;28;20350;-65
2023/12/04 09:41:42;;;;;;;;;;;;;;;18.84;32.63;100597.81;5011814;28;19925;-64
2023/12/04 09:44:07;;;;;;;;;;;;;;;18.85;32.53;100596.84;5015825;28;19917;-65
2023/12/04 09:46:33;;;;;;;;;;;;;;;18.84;32.45;100587.25;5013168;28;19925;-67
2023/12/04 09:48:59;;;;;;;;;;;;;;;18.84;32.54;100584.59;5013554;28;19925;-66
2023/12/04 09:51:26;;;;;;;;;;;;;;;18.84;32.36;100589.88;5013729;28;19926;-66
2023/12/04 09:53:52;;;;;;;;;;;;;;;18.86;32.38;100589.75;5012392;28;19925;-65
2023/12/04 09:56:18;;;;;;;;;;;;;;;18.85;32.62;100588.09;5014124;28;19932;-65
2023/12/04 09:58:44;;;;;;;;;;;;;;;18.84;32.50;100581.97;5013356;28;19917;-65
2023/12/04 10:01:11;;;;;;;;;;;;;;;18.85;32.38;100583.66;5013616;28;20301;-68
2023/12/04 10:03:36;;;;;;;;;;;;;;;18.83;32.46;100588.22;5012637;28;20464;-64
2023/12/04 10:06:02;;;;;;;;;;;;;;;18.84;32.44;100587.25;5013440;28;19932;-65
2023/12/04 10:08:27;;;;;;;;;;;;;;;18.83;32.49;100575.00;5013505;28;19925;-63
2023/12/04 10:10:52;;;;;;;;;;;;;;;18.83;32.29;100577.66;5012689;28;19918;-64
2023/12/04 10:13:17;;;;;;;;;;;;;;;18.84;32.38;100574.03;5014053;28;19964;-63
2023/12/04 10:15:49;;;;;;;;;;;;;;;18.87;32.60;100572.09;5013128;28;19932;-66
2023/12/04 10:18:25;;;;;;;;;;;;;;;18.84;32.27;100562.66;5012886;28;19972;-68
2023/12/04 10:20:54;;;;;;;;;;;;;;;18.83;32.05;100558.31;5013323;28;20267;-68
2023/12/04 10:23:20;;;;;;;;;;;;;;;18.87;32.21;100556.25;5012569;28;20374;-68
2023/12/04 10:25:45;;;;;;;;;;;;;;;18.92;32.20;100541.69;5013093;28;19936;-69
2023/12/04 10:28:12;;;;;;;;;;;;;;;18.96;32.29;100539.59;5013215;28;19929;-66
2023/12/04 10:30:38;;;;;;;;;;;;;;;19.01;32.22;100535.59;5012745;28;19925;-66
2023/12/04 10:33:04;;;;;;;;;;;;;;;19.03;32.08;100525.69;5012804;28;20281;-66
2023/12/04 10:35:31;;;;;;;;;;;;;;;19.06;32.29;100519.31;5012764;28;20357;-70
2023/12/04 10:37:56;;;;;;;;;;;;;;;19.10;32.40;100518.06;5014563;28;19925;-68
2023/12/04 10:40:31;;;;;;;;;;;;;;;19.09;32.10;100523.47;5011726;28;19936;-66
2023/12/04 10:43:09;;;;;;;;;;;;;;;19.05;31.94;100509.72;5012818;28;19936;-66
2023/12/04 10:45:37;;;;;;;;;;;;;;;18.99;32.24;100503.19;5012571;28;19944;-66
2023/12/04 10:48:04;;;;;;;;;;;;;;;18.95;32.31;100506.25;5012358;28;19925;-63
2023/12/04 10:50:31;;;;;;;;;;;;;;;18.91;32.43;100491.66;5012605;28;20469;-64
2023/12/04 10:52:57;;;;;;;;;;;;;;;18.88;32.46;100490.09;5012615;28;19956;-67
2023/12/04 10:55:23;;;;;;;;;;;;;;;18.85;32.54;100483.31;5012610;28;19964;-65
2023/12/04 10:57:50;;;;;;;;;;;;;;;18.85;32.68;100483.31;5012700;28;19925;-67
2023/12/04 11:00:16;;;;;;;;;;;;;;;18.82;32.32;100477.47;5012179;28;19917;-67
2023/12/04 11:02:46;;;;;;;;;;;;;;;18.82;32.44;100485.38;5010472;28;19922;-66
2023/12/04 11:05:14;;;;;;;;;;;;;;;18.81;32.25;100468.69;5018975;28;20455;-67
2023/12/04 11:07:41;;;;;;;;;;;;;;;18.84;32.64;100467.59;5012986;28;19991;-65
2023/12/04 11:10:08;;;;;;;;;;;;;;;18.84;32.43;100464.97;5010984;28;19932;-66
2023/12/04 11:12:33;;;;;;;;;;;;;;;18.85;32.88;100467.47;5011439;28;19925;-64
2023/12/04 11:15:01;;;;;;;;;;;;;;;18.85;32.71;100466.66;5013588;28;19929;-66
2023/12/04 11:17:31;;;;;;;;;;;;;;;18.87;32.66;100459.41;5012060;28;19926;-67
2023/12/04 11:20:00;;;;;;;;;;;;;;;18.88;32.77;100457.59;5011552;28;20068;-67
2023/12/04 11:22:26;;;;;;;;;;;;;;;18.85;32.26;100456.91;5010637;28;19917;-65
2023/12/04 11:24:51;;;;;;;;;;;;;;;18.82;32.61;100454.50;5012833;28;20075;-65
2023/12/04 11:27:17;;;;;;;;;;;;;;;18.81;32.93;100450.19;5011045;28;19922;-67
2023/12/04 11:29:43;;;;;;;;;;;;;;;18.82;32.25;100449.22;5010781;28;20453;-66
2023/12/04 11:32:12;;;;;;;;;;;;;;;18.82;32.63;100443.13;5013174;28;20031;-65
2023/12/04 11:34:46;;;;;;;;;;;;;;;18.81;32.79;100436.16;5012698;28;19925;-65
2023/12/04 11:37:13;;;;;;;;;;;;;;;18.83;32.85;100432.44;5012183;28;19935;-67
2023/12/04 11:39:39;;;;;;;;;;;;;;;18.81;32.60;100429.06;5011151;28;19925;-66
2023/12/04 11:42:06;;;;;;;;;;;;;;;18.79;32.93;100423.09;5011244;28;20420;-65
2023/12/04 11:44:32;;;;;;;;;;;;;;;18.79;32.94;100422.28;5011432;28;20113;-64
2023/12/04 11:47:02;;;;;;;;;;;;;;;18.77;32.71;100419.78;5010748;28;19918;-66
2023/12/04 11:49:30;;;;;;;;;;;;;;;18.79;33.01;100415.19;5011624;28;20064;-65
2023/12/04 11:51:56;;;;;;;;;;;;;;;18.79;33.05;100402.00;5011181;28;19975;-66
2023/12/04 11:54:24;;;;;;;;;;;;;;;18.78;33.37;100416.16;5012192;28;19924;-64
2023/12/04 11:57:00;;;;;;;;;;;;;;;18.78;33.04;100407.41;5011270;28;20425;-65
2023/12/04 11:59:26;;;;;;;;;;;;;;;18.77;32.92;100400.44;5011309;28;19925;-64
2023/12/04 12:01:53;;;;;;;;;;;;;;;18.76;32.95;100398.81;5011338;28;19924;-63
2023/12/04 12:04:18;;;;;;;;;;;;;;;18.74;32.95;100379.59;5011245;28;20337;-66
2023/12/04 12:06:44;;;;;;;;;;;;;;;18.73;33.03;100378.78;5011710;28;19968;-67
2023/12/04 12:09:09;;;;;;;;;;;;;;;18.79;32.83;100361.56;5011264;28;20396;-68
2023/12/04 12:11:36;;;;;;;;;;;;;;;18.73;32.59;100362.94;5011105;28;19925;-66
2023/12/04 12:14:01;;;;;;;;;;;;;;;18.73;32.57;100351.56;5010850;28;20132;-65
2023/12/04 12:16:26;;;;;;;;;;;;;;;18.71;32.90;100354.34;5010865;28;20366;-65
2023/12/04 12:18:51;;;;;;;;;;;;;;;18.71;33.01;100343.78;5011461;28;19929;-66
2023/12/04 12:21:17;;;;;;;;;;;;;;;18.71;33.23;100338.50;5008635;28;20337;-66
2023/12/04 12:23:43;;;;;;;;;;;;;;;18.73;33.42;100331.28;5012076;28;19925;-66
2023/12/04 12:26:08;;;;;;;;;;;;;;;18.72;33.17;100326.97;5011008;28;19921;-68
2023/12/04 12:28:34;;;;;;;;;;;;;;;18.72;33.15;100326.97;5010143;28;19932;-68